Time;durP1;ratioP1;P1;durP2;ratioP2;P2;SDS_P1;SDS_P2;PMS_P1;PMS_P2;Temp;Humidity;BMP_temperature;BMP_pressure;BME280_temperature;BME280_humidity;BME280_pressure;Samples;Min_cycle;Max_cycle;Signal;HPM_P1;HPM_P2
2021/03/31 00:02:23;;;;;;;;;72.50;57.00;;;;;;;;3724664;37;17746;-63
2021/03/31 00:04:50;;;;;;;;;73.75;56.50;;;;;;;;3724531;38;20694;-64
2021/03/31 00:07:16;;;;;;;;;74.25;55.75;;;;;;;;3724794;37;20716;-63
2021/03/31 00:09:41;;;;;;;;;73.75;57.25;;;;;;;;3724883;37;20708;-63
2021/03/31 00:12:07;;;;;;;;;75.25;56.75;;;;;;;;3725064;38;17721;-64
2021/03/31 00:14:34;;;;;;;;;68.75;55.00;;;;;;;;3724970;38;17988;-64
2021/03/31 00:16:59;;;;;;;;;74.75;55.50;;;;;;;;3725010;37;20674;-64
2021/03/31 00:19:25;;;;;;;;;79.00;59.25;;;;;;;;3724933;38;20682;-64
2021/03/31 00:21:56;;;;;;;;;80.50;59.50;;;;;;;;3725036;38;17708;-64
2021/03/31 00:24:22;;;;;;;;;78.50;59.25;;;;;;;;3725109;37;17708;-64
2021/03/31 00:26:48;;;;;;;;;73.25;56.75;;;;;;;;3724853;37;20679;-63
2021/03/31 00:29:14;;;;;;;;;77.00;58.50;;;;;;;;3725074;38;17694;-64
2021/03/31 00:31:40;;;;;;;;;77.25;59.00;;;;;;;;3724956;37;17696;-62
2021/03/31 00:34:06;;;;;;;;;76.75;57.00;;;;;;;;3725091;38;17693;-62
2021/03/31 00:36:31;;;;;;;;;73.00;57.50;;;;;;;;3725093;37;20662;-63
2021/03/31 00:38:58;;;;;;;;;76.50;59.25;;;;;;;;3724807;37;17696;-63
2021/03/31 00:41:24;;;;;;;;;64.25;52.75;;;;;;;;3724580;37;17702;-63
2021/03/31 00:43:49;;;;;;;;;75.25;58.50;;;;;;;;3724976;38;20659;-64
2021/03/31 00:46:15;;;;;;;;;74.25;56.75;;;;;;;;3725087;38;17694;-62
2021/03/31 00:48:41;;;;;;;;;74.50;57.25;;;;;;;;3725045;38;17659;-63
2021/03/31 00:51:07;;;;;;;;;70.00;55.00;;;;;;;;3725197;37;17688;-64
2021/03/31 00:53:36;;;;;;;;;64.50;53.25;;;;;;;;3724727;38;20651;-64
2021/03/31 00:56:02;;;;;;;;;67.00;51.25;;;;;;;;3725046;38;17670;-64
2021/03/31 00:58:30;;;;;;;;;73.25;58.25;;;;;;;;3724785;38;20614;-65
2021/03/31 01:00:56;;;;;;;;;82.00;60.00;;;;;;;;3724626;38;20727;-64
2021/03/31 01:03:28;;;;;;;;;72.75;56.25;;;;;;;;3724821;38;20613;-65
2021/03/31 01:05:55;;;;;;;;;71.75;56.75;;;;;;;;3724942;37;17669;-63
2021/03/31 01:08:21;;;;;;;;;70.50;55.25;;;;;;;;3724891;38;20618;-63
2021/03/31 01:10:48;;;;;;;;;73.00;53.00;;;;;;;;3724810;38;20633;-64
2021/03/31 01:13:22;;;;;;;;;74.50;55.75;;;;;;;;3724789;38;20620;-64
2021/03/31 01:15:54;;;;;;;;;67.50;54.25;;;;;;;;3725132;38;20590;-64
2021/03/31 01:18:28;;;;;;;;;72.25;54.75;;;;;;;;3725073;37;20609;-64
2021/03/31 01:21:23;;;;;;;;;64.50;52.25;;;;;;;;3724912;37;20604;-64
2021/03/31 01:24:05;;;;;;;;;68.25;51.75;;;;;;;;3724906;37;20834;-63
2021/03/31 01:26:37;;;;;;;;;71.25;52.25;;;;;;;;3724532;38;20625;-65
2021/03/31 01:29:21;;;;;;;;;73.25;54.00;;;;;;;;3724979;37;20675;-64
2021/03/31 01:32:04;;;;;;;;;69.25;52.25;;;;;;;;3724805;38;21573;-63
2021/03/31 01:34:35;;;;;;;;;69.50;55.00;;;;;;;;3725143;37;20607;-64
2021/03/31 01:37:01;;;;;;;;;75.50;55.50;;;;;;;;3725043;37;20715;-63
2021/03/31 01:39:28;;;;;;;;;71.00;54.50;;;;;;;;3724931;38;20579;-64
2021/03/31 01:41:56;;;;;;;;;67.50;51.50;;;;;;;;3724997;38;20583;-64
2021/03/31 01:44:23;;;;;;;;;70.50;55.75;;;;;;;;3724943;37;21791;-64
2021/03/31 01:46:53;;;;;;;;;63.75;50.50;;;;;;;;3725122;38;20566;-62
2021/03/31 01:49:22;;;;;;;;;72.75;55.00;;;;;;;;3725060;37;20565;-63
2021/03/31 01:51:49;;;;;;;;;74.25;56.25;;;;;;;;3724548;38;20567;-64
2021/03/31 01:54:17;;;;;;;;;73.25;57.00;;;;;;;;3725273;38;21559;-63
2021/03/31 01:56:44;;;;;;;;;65.50;51.50;;;;;;;;3724613;37;21543;-64
2021/03/31 01:59:11;;;;;;;;;73.75;55.00;;;;;;;;3724967;38;21544;-64
2021/03/31 02:01:37;;;;;;;;;65.25;50.00;;;;;;;;3724805;37;21553;-63
2021/03/31 02:04:04;;;;;;;;;68.25;52.50;;;;;;;;3725034;37;21479;-64
2021/03/31 02:06:31;;;;;;;;;68.75;52.25;;;;;;;;3724888;37;21542;-63
2021/03/31 02:08:59;;;;;;;;;70.00;55.50;;;;;;;;3724954;37;21508;-62
2021/03/31 02:11:26;;;;;;;;;66.50;53.00;;;;;;;;3724928;37;21508;-64
2021/03/31 02:13:52;;;;;;;;;77.00;53.50;;;;;;;;3725015;37;21515;-64
2021/03/31 02:16:18;;;;;;;;;71.50;56.00;;;;;;;;3725374;38;21532;-64
2021/03/31 02:18:45;;;;;;;;;76.00;59.00;;;;;;;;3725258;38;21520;-64
2021/03/31 02:21:13;;;;;;;;;69.00;55.00;;;;;;;;3724496;37;21529;-64
2021/03/31 02:23:42;;;;;;;;;69.75;56.00;;;;;;;;3724762;37;21505;-63
2021/03/31 02:26:08;;;;;;;;;70.25;52.50;;;;;;;;3724904;37;21502;-64
2021/03/31 02:28:34;;;;;;;;;68.25;52.00;;;;;;;;3724896;38;21520;-64
2021/03/31 02:31:00;;;;;;;;;72.25;55.00;;;;;;;;3725183;37;18533;-66
2021/03/31 02:33:28;;;;;;;;;69.00;54.50;;;;;;;;3725059;38;21508;-64
2021/03/31 02:35:54;;;;;;;;;69.25;53.25;;;;;;;;3724614;37;18515;-64
2021/03/31 02:38:20;;;;;;;;;67.00;50.50;;;;;;;;3724862;38;21506;-62
2021/03/31 02:40:47;;;;;;;;;69.50;56.50;;;;;;;;3724936;37;18538;-63
2021/03/31 02:43:14;;;;;;;;;73.50;54.75;;;;;;;;3724438;37;21469;-65
2021/03/31 02:45:41;;;;;;;;;71.25;55.25;;;;;;;;3724994;38;21482;-63
2021/03/31 02:48:09;;;;;;;;;73.25;56.50;;;;;;;;3724973;38;21464;-64
2021/03/31 02:50:42;;;;;;;;;77.00;57.50;;;;;;;;3724568;37;21473;-64
2021/03/31 02:53:10;;;;;;;;;72.00;55.00;;;;;;;;3724845;38;21466;-65
2021/03/31 02:55:37;;;;;;;;;78.75;57.50;;;;;;;;3724928;38;21485;-64
2021/03/31 02:58:07;;;;;;;;;81.25;58.50;;;;;;;;3725066;37;18501;-63
2021/03/31 03:00:33;;;;;;;;;80.25;61.50;;;;;;;;3725088;37;21464;-64
2021/03/31 03:03:01;;;;;;;;;80.00;58.00;;;;;;;;3724912;38;18475;-65
2021/03/31 03:05:26;;;;;;;;;72.00;54.25;;;;;;;;3724866;37;21437;-64
2021/03/31 03:07:52;;;;;;;;;75.00;57.25;;;;;;;;3725019;37;18485;-64
2021/03/31 03:10:18;;;;;;;;;78.75;58.50;;;;;;;;3724969;37;18469;-64
2021/03/31 03:12:48;;;;;;;;;78.50;58.00;;;;;;;;3725025;37;18485;-64
2021/03/31 03:15:15;;;;;;;;;74.50;51.00;;;;;;;;3724905;38;21420;-66
2021/03/31 03:17:41;;;;;;;;;65.50;53.50;;;;;;;;3724762;37;21456;-63
2021/03/31 03:20:12;;;;;;;;;74.00;57.25;;;;;;;;3725108;37;21443;-65
2021/03/31 03:22:38;;;;;;;;;76.00;56.25;;;;;;;;3725034;37;18453;-65
2021/03/31 03:25:05;;;;;;;;;74.25;56.75;;;;;;;;3724424;38;18453;-65
2021/03/31 03:27:34;;;;;;;;;70.00;55.00;;;;;;;;3725119;37;21411;-62
2021/03/31 03:30:00;;;;;;;;;52.50;41.50;;;;;;;;3725131;38;21586;-65
2021/03/31 03:32:26;;;;;;;;;24.25;24.25;;;;;;;;3725073;37;21418;-64
2021/03/31 03:34:54;;;;;;;;;80.50;57.50;;;;;;;;3724941;38;21401;-65
2021/03/31 03:37:20;;;;;;;;;75.75;57.50;;;;;;;;3724943;37;21402;-64
2021/03/31 03:39:46;;;;;;;;;67.75;50.75;;;;;;;;3724740;37;21416;-64
2021/03/31 03:42:12;;;;;;;;;79.75;60.00;;;;;;;;3725005;37;21414;-65
2021/03/31 03:44:38;;;;;;;;;78.75;59.25;;;;;;;;3725093;37;18429;-64
2021/03/31 03:47:05;;;;;;;;;78.00;58.25;;;;;;;;3725132;38;18422;-65
2021/03/31 03:49:35;;;;;;;;;79.00;59.50;;;;;;;;3725039;37;18409;-64
2021/03/31 03:52:01;;;;;;;;;83.25;61.50;;;;;;;;3725022;37;18414;-65
2021/03/31 03:54:26;;;;;;;;;79.00;61.75;;;;;;;;3724894;37;18438;-65
2021/03/31 03:56:54;;;;;;;;;82.50;59.75;;;;;;;;3725420;38;18428;-65
2021/03/31 03:59:21;;;;;;;;;80.25;59.50;;;;;;;;3725180;38;18397;-64
2021/03/31 04:01:48;;;;;;;;;74.25;53.75;;;;;;;;3725328;37;18422;-65
2021/03/31 04:04:14;;;;;;;;;90.00;63.50;;;;;;;;3725023;37;18396;-65
2021/03/31 04:06:40;;;;;;;;;85.50;62.00;;;;;;;;3725046;38;18395;-64
2021/03/31 04:09:06;;;;;;;;;87.25;65.25;;;;;;;;3725032;37;18387;-63
2021/03/31 04:11:32;;;;;;;;;86.75;65.75;;;;;;;;3725044;38;18411;-65
2021/03/31 04:13:59;;;;;;;;;87.25;65.00;;;;;;;;3724881;37;18387;-64
2021/03/31 04:16:27;;;;;;;;;85.25;63.50;;;;;;;;3725054;37;18381;-65
2021/03/31 04:18:58;;;;;;;;;83.75;64.00;;;;;;;;3724692;37;18395;-65
2021/03/31 04:21:24;;;;;;;;;138.00;117.25;;;;;;;;3725095;37;18405;-62
2021/03/31 04:23:52;;;;;;;;;125.00;109.50;;;;;;;;3725336;37;18390;-63
2021/03/31 04:26:20;;;;;;;;;104.50;84.50;;;;;;;;3725365;38;18376;-65
2021/03/31 04:28:46;;;;;;;;;98.50;85.00;;;;;;;;3724986;37;18367;-65
2021/03/31 04:31:12;;;;;;;;;101.75;73.50;;;;;;;;3725100;37;18361;-64
2021/03/31 04:33:38;;;;;;;;;95.75;79.50;;;;;;;;3724764;37;18456;-64
2021/03/31 04:36:05;;;;;;;;;91.75;69.50;;;;;;;;3724984;37;18366;-65
2021/03/31 04:38:31;;;;;;;;;92.00;68.50;;;;;;;;3741033;37;18357;-64
2021/03/31 04:40:59;;;;;;;;;85.50;65.50;;;;;;;;3741324;38;18428;-65
2021/03/31 04:43:31;;;;;;;;;84.50;66.75;;;;;;;;3741079;37;18406;-63
2021/03/31 04:46:01;;;;;;;;;86.00;63.25;;;;;;;;3740688;37;18437;-64
2021/03/31 04:48:27;;;;;;;;;84.25;63.50;;;;;;;;3741150;38;18433;-63
2021/03/31 04:50:54;;;;;;;;;78.00;62.00;;;;;;;;3736981;37;18416;-63
2021/03/31 04:53:21;;;;;;;;;87.00;63.50;;;;;;;;3734403;37;18408;-62
2021/03/31 04:55:49;;;;;;;;;88.25;65.50;;;;;;;;3737286;38;18423;-64
2021/03/31 04:58:15;;;;;;;;;92.75;70.25;;;;;;;;3726575;37;18417;-65
2021/03/31 05:00:41;;;;;;;;;86.50;66.00;;;;;;;;3725603;37;18399;-65
2021/03/31 05:03:07;;;;;;;;;88.00;64.00;;;;;;;;3725717;37;18403;-64
2021/03/31 05:05:33;;;;;;;;;88.25;64.25;;;;;;;;3725541;38;18389;-65
2021/03/31 05:07:59;;;;;;;;;92.75;67.25;;;;;;;;3725715;37;18389;-66
2021/03/31 05:10:26;;;;;;;;;91.50;70.75;;;;;;;;3725012;38;18404;-63
2021/03/31 05:12:55;;;;;;;;;92.25;76.50;;;;;;;;3725186;37;18404;-64
2021/03/31 05:15:21;;;;;;;;;95.00;73.75;;;;;;;;3725125;38;18394;-64
2021/03/31 05:17:47;;;;;;;;;91.25;68.25;;;;;;;;3725050;38;18387;-65
2021/03/31 05:20:14;;;;;;;;;88.50;68.25;;;;;;;;3725002;38;18355;-63
2021/03/31 05:22:40;;;;;;;;;94.25;72.50;;;;;;;;3725063;38;18380;-65
2021/03/31 05:25:07;;;;;;;;;87.25;66.50;;;;;;;;3725257;37;18373;-64
2021/03/31 05:27:33;;;;;;;;;86.50;65.75;;;;;;;;3724842;38;18362;-63
2021/03/31 05:29:59;;;;;;;;;84.25;64.00;;;;;;;;3725075;37;18360;-64
2021/03/31 05:32:26;;;;;;;;;87.75;66.75;;;;;;;;3724956;38;18360;-64
2021/03/31 05:34:53;;;;;;;;;91.00;68.50;;;;;;;;3724958;37;18338;-65
2021/03/31 05:37:19;;;;;;;;;87.00;68.25;;;;;;;;3725043;38;18341;-64
2021/03/31 05:39:45;;;;;;;;;86.00;65.25;;;;;;;;3724873;38;18363;-65
2021/03/31 05:42:11;;;;;;;;;81.00;59.75;;;;;;;;3725076;38;18333;-65
2021/03/31 05:44:38;;;;;;;;;75.25;58.50;;;;;;;;3725139;38;18346;-63
2021/03/31 05:47:05;;;;;;;;;77.00;59.75;;;;;;;;3724962;37;21251;-64
2021/03/31 05:49:32;;;;;;;;;75.25;56.00;;;;;;;;3724822;38;21614;-62
2021/03/31 05:51:58;;;;;;;;;73.50;53.25;;;;;;;;3724861;38;21595;-70
2021/03/31 05:54:27;;;;;;;;;69.75;52.50;;;;;;;;3724651;38;21603;-65
2021/03/31 05:56:53;;;;;;;;;72.50;52.75;;;;;;;;3724936;37;21597;-63
2021/03/31 05:59:21;;;;;;;;;67.75;52.50;;;;;;;;3725039;37;18313;-63
2021/03/31 06:01:48;;;;;;;;;71.50;55.00;;;;;;;;3724655;38;18307;-67
2021/03/31 06:04:17;;;;;;;;;72.25;55.75;;;;;;;;3724721;38;21596;-66
2021/03/31 06:06:44;;;;;;;;;70.50;56.00;;;;;;;;3724970;38;21570;-65
2021/03/31 06:09:10;;;;;;;;;71.00;53.00;;;;;;;;3725251;38;21584;-66
2021/03/31 06:11:55;;;;;;;;;67.50;53.75;;;;;;;;3725155;37;21585;-68
2021/03/31 06:14:28;;;;;;;;;70.25;54.00;;;;;;;;3724896;38;21568;-62
2021/03/31 06:17:01;;;;;;;;;69.00;53.25;;;;;;;;3725145;37;21579;-70
2021/03/31 06:19:27;;;;;;;;;70.75;53.50;;;;;;;;3724989;38;21571;-65
2021/03/31 06:22:07;;;;;;;;;67.00;52.75;;;;;;;;3725017;38;21545;-63
2021/03/31 06:24:34;;;;;;;;;69.25;53.75;;;;;;;;3725049;37;18283;-61
2021/03/31 06:27:04;;;;;;;;;64.50;50.50;;;;;;;;3724892;38;21553;-68
2021/03/31 06:29:43;;;;;;;;;69.75;53.75;;;;;;;;3724802;38;21384;-66
2021/03/31 06:32:15;;;;;;;;;63.75;51.00;;;;;;;;3724726;38;21550;-63
2021/03/31 06:34:54;;;;;;;;;62.00;51.00;;;;;;;;3724597;37;21549;-64
2021/03/31 06:37:23;;;;;;;;;63.50;50.75;;;;;;;;3723966;38;21524;-64
2021/03/31 06:39:51;;;;;;;;;65.25;49.75;;;;;;;;3724656;38;21528;-64
2021/03/31 06:42:25;;;;;;;;;63.50;51.00;;;;;;;;3724733;38;21556;-63
2021/03/31 06:47:54;;;;;;;;;61.50;48.75;;;;;;;;3724958;37;21565;-64
2021/03/31 06:50:20;;;;;;;;;62.50;48.50;;;;;;;;3724551;37;21538;-65
2021/03/31 06:52:59;;;;;;;;;57.75;45.75;;;;;;;;3724276;37;21518;-65
2021/03/31 06:55:27;;;;;;;;;60.25;46.75;;;;;;;;3724894;37;18245;-62
2021/03/31 06:57:54;;;;;;;;;62.75;49.25;;;;;;;;3724341;37;21502;-64
2021/03/31 07:00:24;;;;;;;;;63.00;49.25;;;;;;;;3723939;38;21512;-63
2021/03/31 07:02:52;;;;;;;;;64.00;51.75;;;;;;;;3724147;38;21505;-63
2021/03/31 07:05:17;;;;;;;;;64.50;50.50;;;;;;;;3724622;38;21493;-62
2021/03/31 07:07:44;;;;;;;;;60.75;48.75;;;;;;;;3724828;38;21507;-64
2021/03/31 07:10:11;;;;;;;;;63.75;50.50;;;;;;;;3724838;37;18245;-63
2021/03/31 07:12:41;;;;;;;;;69.75;56.25;;;;;;;;3724846;38;21480;-65
2021/03/31 07:15:08;;;;;;;;;69.25;53.75;;;;;;;;3724807;37;21488;-62
2021/03/31 07:17:34;;;;;;;;;69.25;53.00;;;;;;;;3724804;37;21500;-63
2021/03/31 07:20:07;;;;;;;;;68.50;54.25;;;;;;;;3724981;37;21488;-63
2021/03/31 07:22:33;;;;;;;;;71.25;56.50;;;;;;;;3724780;37;21486;-62
2021/03/31 07:25:01;;;;;;;;;70.50;55.00;;;;;;;;3724878;38;21096;-62
2021/03/31 07:27:26;;;;;;;;;61.00;48.75;;;;;;;;3724978;37;21527;-64
2021/03/31 07:30:07;;;;;;;;;69.25;55.25;;;;;;;;3726412;37;21463;-65
2021/03/31 07:33:11;;;;;;;;;66.00;52.25;;;;;;;;3724089;37;18226;-65
2021/03/31 07:35:38;;;;;;;;;62.00;49.75;;;;;;;;3723904;37;21484;-64
2021/03/31 07:38:06;;;;;;;;;61.50;50.50;;;;;;;;3724062;38;21478;-63
2021/03/31 07:40:33;;;;;;;;;60.75;49.25;;;;;;;;3723279;38;21460;-60
2021/03/31 07:43:03;;;;;;;;;64.50;50.25;;;;;;;;3723913;38;21482;-63
2021/03/31 07:45:39;;;;;;;;;64.00;48.50;;;;;;;;3724226;38;21448;-64
2021/03/31 07:48:06;;;;;;;;;63.75;51.25;;;;;;;;3724554;37;21453;-64
2021/03/31 07:50:32;;;;;;;;;60.50;49.00;;;;;;;;3724335;38;21452;-62
2021/03/31 07:52:59;;;;;;;;;61.75;49.75;;;;;;;;3724223;38;21457;-65
2021/03/31 07:55:38;;;;;;;;;62.00;49.50;;;;;;;;3724363;37;21434;-64
2021/03/31 07:58:25;;;;;;;;;62.25;50.25;;;;;;;;3723129;38;21451;-63
2021/03/31 08:00:56;;;;;;;;;63.25;51.50;;;;;;;;3723127;37;21433;-61
2021/03/31 08:03:24;;;;;;;;;65.00;50.00;;;;;;;;3724192;38;21102;-61
2021/03/31 08:06:06;;;;;;;;;67.25;51.25;;;;;;;;3724916;37;21436;-65
2021/03/31 08:08:52;;;;;;;;;63.00;50.50;;;;;;;;3724824;38;21446;-63
2021/03/31 08:11:36;;;;;;;;;61.25;48.75;;;;;;;;3724864;38;21748;-63
2021/03/31 08:14:02;;;;;;;;;73.00;57.25;;;;;;;;3724660;37;21448;-63
2021/03/31 08:16:36;;;;;;;;;66.75;53.25;;;;;;;;3724998;38;18127;-63
2021/03/31 08:19:25;;;;;;;;;68.00;53.25;;;;;;;;3724967;37;18143;-63
2021/03/31 08:21:57;;;;;;;;;65.50;52.00;;;;;;;;3724957;38;21412;-63
2021/03/31 08:24:43;;;;;;;;;68.25;53.25;;;;;;;;3724319;37;21400;-63
2021/03/31 08:27:09;;;;;;;;;66.50;52.00;;;;;;;;3724941;38;21440;-62
2021/03/31 08:29:44;;;;;;;;;67.50;54.00;;;;;;;;3725112;37;21402;-62
2021/03/31 08:32:12;;;;;;;;;63.50;51.75;;;;;;;;3723969;37;18110;-62
2021/03/31 08:34:38;;;;;;;;;72.00;60.50;;;;;;;;3724787;38;21675;-63
2021/03/31 08:37:05;;;;;;;;;80.75;70.25;;;;;;;;3725037;38;21404;-63
2021/03/31 08:39:31;;;;;;;;;68.25;53.50;;;;;;;;3724964;38;18131;-62
2021/03/31 08:41:57;;;;;;;;;61.00;48.75;;;;;;;;3725094;38;21360;-62
2021/03/31 08:44:34;;;;;;;;;62.50;49.50;;;;;;;;3725054;37;21351;-64
2021/03/31 08:47:33;;;;;;;;;65.00;51.25;;;;;;;;3724957;38;21343;-63
2021/03/31 08:50:07;;;;;;;;;67.25;51.00;;;;;;;;3725055;38;21324;-63
2021/03/31 08:52:34;;;;;;;;;61.00;49.25;;;;;;;;3724885;37;21306;-64
2021/03/31 08:55:01;;;;;;;;;60.00;47.75;;;;;;;;3724791;37;21318;-64
2021/03/31 08:57:28;;;;;;;;;62.00;49.75;;;;;;;;3724781;38;21315;-63
2021/03/31 08:59:56;;;;;;;;;65.75;52.75;;;;;;;;3724991;38;21330;-63
2021/03/31 09:02:27;;;;;;;;;58.50;47.75;;;;;;;;3724928;37;20289;-62
2021/03/31 09:04:53;;;;;;;;;60.00;48.25;;;;;;;;3724890;37;21308;-63
2021/03/31 09:07:19;;;;;;;;;61.25;49.50;;;;;;;;3724794;37;21299;-61
2021/03/31 09:09:46;;;;;;;;;57.00;46.25;;;;;;;;3724796;38;21306;-63
2021/03/31 09:12:31;;;;;;;;;60.50;48.75;;;;;;;;3724881;37;21295;-61
2021/03/31 09:15:00;;;;;;;;;64.25;51.25;;;;;;;;3724812;37;21333;-61
2021/03/31 09:17:27;;;;;;;;;63.50;51.00;;;;;;;;3725035;38;21283;-63
2021/03/31 09:19:54;;;;;;;;;59.50;46.75;;;;;;;;3724945;37;21290;-62
2021/03/31 09:22:31;;;;;;;;;55.25;45.50;;;;;;;;3724848;38;21299;-62
2021/03/31 09:25:14;;;;;;;;;53.25;43.75;;;;;;;;3724797;37;21301;-62
2021/03/31 09:27:41;;;;;;;;;54.50;43.75;;;;;;;;3724793;37;21288;-61
2021/03/31 09:30:11;;;;;;;;;53.00;42.00;;;;;;;;3725136;37;21293;-60
2021/03/31 09:32:58;;;;;;;;;53.50;42.75;;;;;;;;3724773;37;21262;-60
2021/03/31 09:35:24;;;;;;;;;57.50;45.75;;;;;;;;3724811;37;21286;-60
2021/03/31 09:37:51;;;;;;;;;56.25;46.50;;;;;;;;3725073;38;21270;-61
2021/03/31 09:40:28;;;;;;;;;56.50;45.25;;;;;;;;3724972;38;18045;-61
2021/03/31 09:42:56;;;;;;;;;55.25;43.75;;;;;;;;3725007;37;21236;-62
2021/03/31 09:45:25;;;;;;;;;52.25;41.75;;;;;;;;3724655;37;21335;-63
2021/03/31 09:47:51;;;;;;;;;55.50;45.25;;;;;;;;3724939;37;21236;-62
2021/03/31 09:50:18;;;;;;;;;52.50;42.25;;;;;;;;3724933;38;21255;-62
2021/03/31 09:52:45;;;;;;;;;48.00;39.25;;;;;;;;3725156;37;18022;-64
2021/03/31 09:55:13;;;;;;;;;52.25;43.00;;;;;;;;3724635;38;21235;-62
2021/03/31 09:57:40;;;;;;;;;49.00;41.50;;;;;;;;3724813;37;21256;-63
2021/03/31 10:00:14;;;;;;;;;46.75;37.25;;;;;;;;3724984;38;21226;-62
2021/03/31 10:02:41;;;;;;;;;47.25;36.75;;;;;;;;3724979;37;21173;-64
2021/03/31 10:05:09;;;;;;;;;43.75;36.25;;;;;;;;3725038;37;21119;-61
2021/03/31 10:07:34;;;;;;;;;44.00;37.00;;;;;;;;3725142;38;21115;-61
2021/03/31 10:10:00;;;;;;;;;46.25;37.50;;;;;;;;3725242;37;21142;-63
2021/03/31 10:12:31;;;;;;;;;47.75;38.75;;;;;;;;3725122;38;18004;-62
2021/03/31 10:14:58;;;;;;;;;47.75;40.50;;;;;;;;3724738;37;17989;-59
2021/03/31 10:17:25;;;;;;;;;49.75;41.75;;;;;;;;3724915;38;21211;-60
2021/03/31 10:19:50;;;;;;;;;44.00;37.25;;;;;;;;3724914;38;21232;-60
2021/03/31 10:22:17;;;;;;;;;47.00;38.25;;;;;;;;3725015;38;21174;-63
2021/03/31 10:24:44;;;;;;;;;51.00;40.25;;;;;;;;3725050;38;17967;-62
2021/03/31 10:27:10;;;;;;;;;43.00;36.25;;;;;;;;3724524;37;21202;-61
2021/03/31 10:29:43;;;;;;;;;46.25;40.00;;;;;;;;3724961;37;21111;-63
2021/03/31 10:32:10;;;;;;;;;45.75;39.00;;;;;;;;3723501;37;21194;-62
2021/03/31 10:34:37;;;;;;;;;51.00;39.25;;;;;;;;3724219;38;21194;-63
2021/03/31 10:37:14;;;;;;;;;45.50;39.50;;;;;;;;3725100;37;21179;-61
2021/03/31 10:40:05;;;;;;;;;43.50;36.50;;;;;;;;3725115;37;21026;-63
2021/03/31 10:51:50;;;;;;;;;43.25;37.75;;;;;;;;3724783;37;21228;-62
2021/03/31 10:54:19;;;;;;;;;42.50;36.50;;;;;;;;3724887;37;21056;-62
2021/03/31 10:56:53;;;;;;;;;34.25;32.50;;;;;;;;3724904;38;21082;-62
2021/03/31 10:59:19;;;;;;;;;32.75;31.00;;;;;;;;3724674;38;21064;-63
2021/03/31 11:01:45;;;;;;;;;32.75;32.25;;;;;;;;3724501;37;21041;-61
2021/03/31 11:04:11;;;;;;;;;36.00;34.00;;;;;;;;3724921;37;17932;-62
2021/03/31 11:06:37;;;;;;;;;37.75;34.25;;;;;;;;3724761;38;18018;-61
2021/03/31 11:09:03;;;;;;;;;31.25;30.50;;;;;;;;3724727;37;21058;-64
2021/03/31 11:11:29;;;;;;;;;32.00;30.25;;;;;;;;3725146;38;17912;-63
2021/03/31 11:13:54;;;;;;;;;38.25;33.25;;;;;;;;3725474;38;17919;-62
2021/03/31 11:16:20;;;;;;;;;31.00;26.00;;;;;;;;3726070;37;17901;-63
2021/03/31 11:25:31;;;;;;;;;29.75;28.50;;;;;;;;3725127;37;17887;-62
2021/03/31 11:27:23;;;;;;;;;32.50;28.25;;;;;;;;3724836;38;21006;-62
2021/03/31 11:29:50;;;;;;;;;32.00;31.50;;;;;;;;3724821;38;21040;-62
2021/03/31 11:32:16;;;;;;;;;25.50;24.00;;;;;;;;3724751;37;21042;-60
2021/03/31 11:34:41;;;;;;;;;37.50;32.75;;;;;;;;3724904;38;21055;-62
2021/03/31 11:37:07;;;;;;;;;28.25;27.25;;;;;;;;3724973;38;17917;-63
2021/03/31 11:39:39;;;;;;;;;30.00;26.75;;;;;;;;3723790;38;17881;-60
2021/03/31 11:42:05;;;;;;;;;27.75;25.00;;;;;;;;3723770;38;17878;-60
2021/03/31 11:44:30;;;;;;;;;28.25;25.00;;;;;;;;3724682;38;21042;-60
2021/03/31 11:46:56;;;;;;;;;22.75;21.25;;;;;;;;3724767;38;17855;-61
2021/03/31 11:49:22;;;;;;;;;32.00;29.25;;;;;;;;3724797;37;17844;-60
2021/03/31 11:51:48;;;;;;;;;30.25;29.25;;;;;;;;3724872;38;17881;-60
2021/03/31 11:54:14;;;;;;;;;29.75;28.00;;;;;;;;3724477;37;17845;-61
2021/03/31 11:56:40;;;;;;;;;29.75;27.25;;;;;;;;3724698;37;20969;-60
2021/03/31 11:59:05;;;;;;;;;34.25;31.75;;;;;;;;3724261;38;17849;-59
2021/03/31 12:01:33;;;;;;;;;29.50;28.50;;;;;;;;3724989;37;17864;-60
2021/03/31 12:03:59;;;;;;;;;29.00;27.75;;;;;;;;3725184;37;17862;-61
2021/03/31 12:06:25;;;;;;;;;30.00;28.50;;;;;;;;3725264;38;21016;-60
2021/03/31 12:08:52;;;;;;;;;24.00;21.75;;;;;;;;3725295;37;17803;-60
2021/03/31 12:11:18;;;;;;;;;22.25;22.00;;;;;;;;3725106;38;17807;-60
2021/03/31 12:13:44;;;;;;;;;24.00;22.00;;;;;;;;3725045;38;20956;-60
2021/03/31 12:16:09;;;;;;;;;17.00;16.50;;;;;;;;3724879;38;17830;-59
2021/03/31 12:18:35;;;;;;;;;17.50;16.00;;;;;;;;3725218;37;17823;-60
2021/03/31 12:21:03;;;;;;;;;24.00;21.75;;;;;;;;3725160;38;17801;-61
2021/03/31 12:23:28;;;;;;;;;23.50;20.25;;;;;;;;3725061;37;17808;-59
2021/03/31 12:25:55;;;;;;;;;29.75;27.50;;;;;;;;3725140;37;20948;-61
2021/03/31 12:28:24;;;;;;;;;21.50;20.25;;;;;;;;3725034;37;17789;-60
2021/03/31 12:30:50;;;;;;;;;19.75;19.75;;;;;;;;3724888;38;20958;-62
2021/03/31 12:33:16;;;;;;;;;26.00;23.75;;;;;;;;3725021;37;20928;-60
2021/03/31 12:35:41;;;;;;;;;17.75;17.00;;;;;;;;3724952;37;21031;-59
2021/03/31 12:38:07;;;;;;;;;25.50;22.00;;;;;;;;3725186;38;17787;-60
2021/03/31 12:40:33;;;;;;;;;21.25;19.50;;;;;;;;3725080;37;17948;-60
2021/03/31 12:42:58;;;;;;;;;23.00;20.50;;;;;;;;3725080;37;17781;-60
2021/03/31 12:45:24;;;;;;;;;22.25;20.50;;;;;;;;3725044;37;17765;-59
2021/03/31 12:47:50;;;;;;;;;25.50;22.75;;;;;;;;3725137;37;17834;-61
2021/03/31 12:50:20;;;;;;;;;24.00;22.25;;;;;;;;3724936;37;17765;-59
2021/03/31 12:52:59;;;;;;;;;18.50;16.75;;;;;;;;3724942;37;17760;-60
2021/03/31 12:55:37;;;;;;;;;28.50;25.25;;;;;;;;3725123;37;20974;-59
2021/03/31 12:58:04;;;;;;;;;25.00;22.00;;;;;;;;3725234;38;20976;-61
2021/03/31 13:00:30;;;;;;;;;23.25;21.75;;;;;;;;3725016;38;20905;-61
2021/03/31 13:02:56;;;;;;;;;21.75;19.25;;;;;;;;3724881;37;20924;-61
2021/03/31 13:05:22;;;;;;;;;28.50;24.00;;;;;;;;3725114;38;17752;-58
2021/03/31 13:07:49;;;;;;;;;28.50;25.75;;;;;;;;3725038;38;17726;-62
2021/03/31 13:10:15;;;;;;;;;22.25;21.50;;;;;;;;3724585;37;17764;-61
2021/03/31 13:13:07;;;;;;;;;25.75;24.50;;;;;;;;3725009;38;20851;-60
2021/03/31 13:15:35;;;;;;;;;23.75;22.50;;;;;;;;3724957;37;17708;-61
2021/03/31 13:22:00;;;;;;;;;27.50;25.25;;;;;;;;3724840;38;20944;-61
2021/03/31 13:32:54;;;;;;;;;30.00;28.50;;;;;;;;3724786;38;20868;-60
2021/03/31 13:35:27;;;;;;;;;29.00;28.00;;;;;;;;3724992;38;20914;-60
2021/03/31 13:38:08;;;;;;;;;30.25;29.25;;;;;;;;3725021;37;20874;-59
2021/03/31 13:40:34;;;;;;;;;35.50;32.25;;;;;;;;3724931;37;20867;-62
2021/03/31 13:43:00;;;;;;;;;32.75;30.75;;;;;;;;3724820;37;20861;-61
2021/03/31 13:45:26;;;;;;;;;32.00;29.25;;;;;;;;3724820;37;17696;-60
2021/03/31 13:47:57;;;;;;;;;23.00;22.00;;;;;;;;3724850;38;20873;-59
2021/03/31 13:50:24;;;;;;;;;30.50;28.25;;;;;;;;3725107;37;17700;-59
2021/03/31 13:52:52;;;;;;;;;32.75;31.00;;;;;;;;3724755;38;20864;-59
2021/03/31 13:55:22;;;;;;;;;33.50;30.75;;;;;;;;3725049;37;20771;-61
2021/03/31 13:57:49;;;;;;;;;27.75;25.25;;;;;;;;3724876;38;20860;-61
2021/03/31 14:00:19;;;;;;;;;27.50;24.50;;;;;;;;3723979;37;20846;-62
2021/03/31 14:02:48;;;;;;;;;27.00;24.50;;;;;;;;3723553;37;20806;-60
2021/03/31 14:05:14;;;;;;;;;38.50;31.00;;;;;;;;3724675;37;20838;-60
2021/03/31 14:07:40;;;;;;;;;31.00;28.50;;;;;;;;3724793;38;21869;-59
2021/03/31 14:10:07;;;;;;;;;28.25;22.75;;;;;;;;3724728;37;21915;-60
2021/03/31 14:12:33;;;;;;;;;29.00;28.00;;;;;;;;3724954;37;17670;-64
2021/03/31 14:15:00;;;;;;;;;30.50;27.75;;;;;;;;3724855;38;20832;-59
2021/03/31 14:17:26;;;;;;;;;32.00;29.25;;;;;;;;3724763;37;21825;-61
2021/03/31 14:20:02;;;;;;;;;31.00;29.25;;;;;;;;3725008;38;21810;-60
2021/03/31 14:22:29;;;;;;;;;22.75;21.75;;;;;;;;3724730;37;18642;-61
2021/03/31 14:24:55;;;;;;;;;28.25;24.50;;;;;;;;3724950;37;21796;-58
2021/03/31 14:27:22;;;;;;;;;27.00;23.00;;;;;;;;3723546;38;21832;-63
2021/03/31 14:29:49;;;;;;;;;23.25;19.75;;;;;;;;3724859;37;21803;-64
2021/03/31 14:32:15;;;;;;;;;26.00;21.75;;;;;;;;3724844;38;21317;-61
2021/03/31 14:34:41;;;;;;;;;27.25;25.00;;;;;;;;3724993;37;21743;-62
2021/03/31 14:37:07;;;;;;;;;27.00;21.75;;;;;;;;3724874;38;21794;-61
2021/03/31 14:39:34;;;;;;;;;30.00;28.25;;;;;;;;3724896;37;21861;-60
2021/03/31 14:42:00;;;;;;;;;28.75;26.25;;;;;;;;3724518;38;18656;-61
2021/03/31 14:44:26;;;;;;;;;20.50;20.00;;;;;;;;3724532;37;21786;-60
2021/03/31 14:46:52;;;;;;;;;8.25;5.00;;;;;;;;3724997;37;21788;-62
2021/03/31 14:49:19;;;;;;;;;24.50;24.25;;;;;;;;3724904;38;18637;-63
2021/03/31 14:59:56;;;;;;;;;33.25;29.25;;;;;;;;3724855;38;21704;-62
2021/03/31 15:02:22;;;;;;;;;67.75;53.00;;;;;;;;3724670;38;21773;-62
2021/03/31 15:04:47;;;;;;;;;45.75;36.50;;;;;;;;3724857;37;18578;-61